sensor_id;sensor_type;location;lat;lon;timestamp;temperature;humidity
21849;DHT22;11089;49.852;19.700;2023-02-05T00:01:00;-2.60;1.00
21849;DHT22;11089;49.852;19.700;2023-02-05T00:04:01;-2.70;99.90
21849;DHT22;11089;49.852;19.700;2023-02-05T00:07:03;-2.70;99.90
21849;DHT22;11089;49.852;19.700;2023-02-05T00:10:05;-2.70;1.00
21849;DHT22;11089;49.852;19.700;2023-02-05T00:13:06;-2.70;99.90
21849;DHT22;11089;49.852;19.700;2023-02-05T00:16:10;-2.60;99.90
21849;DHT22;11089;49.852;19.700;2023-02-05T00:19:11;-2.70;1.00
21849;DHT22;11089;49.852;19.700;2023-02-05T00:22:12;-2.70;1.00
21849;DHT22;11089;49.852;19.700;2023-02-05T00:25:13;-2.70;99.90
21849;DHT22;11089;49.852;19.700;2023-02-05T00:28:14;-2.70;1.00
21849;DHT22;11089;49.852;19.700;2023-02-05T00:31:17;-2.70;1.00
21849;DHT22;11089;49.852;19.700;2023-02-05T00:34:19;-2.70;1.00
21849;DHT22;11089;49.852;19.700;2023-02-05T00:37:20;-2.70;1.00
21849;DHT22;11089;49.852;19.700;2023-02-05T00:40:21;-2.80;1.00
21849;DHT22;11089;49.852;19.700;2023-02-05T00:43:22;-2.70;99.90
21849;DHT22;11089;49.852;19.700;2023-02-05T00:46:23;-2.70;99.90
21849;DHT22;11089;49.852;19.700;2023-02-05T00:49:24;-2.80;59.50
21849;DHT22;11089;49.852;19.700;2023-02-05T00:52:25;-2.90;99.90
21849;DHT22;11089;49.852;19.700;2023-02-05T00:55:26;-2.90;99.90
21849;DHT22;11089;49.852;19.700;2023-02-05T00:58:27;-3.00;1.00
21849;DHT22;11089;49.852;19.700;2023-02-05T01:01:28;-3.00;1.00
21849;DHT22;11089;49.852;19.700;2023-02-05T01:04:29;-3.20;1.00
21849;DHT22;11089;49.852;19.700;2023-02-05T01:07:30;-3.20;99.90
21849;DHT22;11089;49.852;19.700;2023-02-05T01:10:31;-3.20;1.00
21849;DHT22;11089;49.852;19.700;2023-02-05T01:13:33;-3.30;99.90
21849;DHT22;11089;49.852;19.700;2023-02-05T01:16:34;-3.40;99.90
21849;DHT22;11089;49.852;19.700;2023-02-05T01:19:35;-3.50;99.90
21849;DHT22;11089;49.852;19.700;2023-02-05T01:22:37;-3.60;1.00
21849;DHT22;11089;49.852;19.700;2023-02-05T01:25:37;-3.40;99.90
21849;DHT22;11089;49.852;19.700;2023-02-05T01:28:38;-3.20;1.00
21849;DHT22;11089;49.852;19.700;2023-02-05T01:31:39;-3.30;99.90
21849;DHT22;11089;49.852;19.700;2023-02-05T01:34:40;-3.20;1.00
21849;DHT22;11089;49.852;19.700;2023-02-05T01:37:41;-3.20;99.90
21849;DHT22;11089;49.852;19.700;2023-02-05T01:40:42;-3.20;99.90
21849;DHT22;11089;49.852;19.700;2023-02-05T01:44:04;-3.20;1.00
21849;DHT22;11089;49.852;19.700;2023-02-05T01:47:05;-3.30;1.00
21849;DHT22;11089;49.852;19.700;2023-02-05T01:50:06;-3.30;1.00
21849;DHT22;11089;49.852;19.700;2023-02-05T01:53:10;-3.20;1.00
21849;DHT22;11089;49.852;19.700;2023-02-05T01:56:20;-3.30;1.00
21849;DHT22;11089;49.852;19.700;2023-02-05T01:59:24;-3.40;99.90
21849;DHT22;11089;49.852;19.700;2023-02-05T02:02:26;-3.40;99.90
21849;DHT22;11089;49.852;19.700;2023-02-05T02:05:29;-3.50;1.00
21849;DHT22;11089;49.852;19.700;2023-02-05T02:08:30;-3.50;1.00
21849;DHT22;11089;49.852;19.700;2023-02-05T02:11:37;-3.60;1.00
21849;DHT22;11089;49.852;19.700;2023-02-05T02:14:39;-3.60;1.00
21849;DHT22;11089;49.852;19.700;2023-02-05T02:17:43;-3.70;1.00
21849;DHT22;11089;49.852;19.700;2023-02-05T02:20:48;-3.60;1.00
21849;DHT22;11089;49.852;19.700;2023-02-05T02:30:48;-3.60;99.90
21849;DHT22;11089;49.852;19.700;2023-02-05T02:33:59;-3.70;1.00
21849;DHT22;11089;49.852;19.700;2023-02-05T02:37:08;-3.80;1.00
21849;DHT22;11089;49.852;19.700;2023-02-05T02:49:54;-4.00;1.00
21849;DHT22;11089;49.852;19.700;2023-02-05T02:52:56;-4.10;99.90
21849;DHT22;11089;49.852;19.700;2023-02-05T02:56:00;-4.00;99.90
21849;DHT22;11089;49.852;19.700;2023-02-05T02:59:09;-4.20;1.00
21849;DHT22;11089;49.852;19.700;2023-02-05T03:02:11;-4.20;1.00
21849;DHT22;11089;49.852;19.700;2023-02-05T03:05:17;-4.30;1.00
21849;DHT22;11089;49.852;19.700;2023-02-05T03:08:44;-4.30;1.00
21849;DHT22;11089;49.852;19.700;2023-02-05T03:11:49;-4.40;99.90
21849;DHT22;11089;49.852;19.700;2023-02-05T03:14:51;-4.50;99.90
21849;DHT22;11089;49.852;19.700;2023-02-05T03:17:54;-4.60;99.90
21849;DHT22;11089;49.852;19.700;2023-02-05T03:20:58;-4.60;99.90
21849;DHT22;11089;49.852;19.700;2023-02-05T03:24:00;-4.60;1.00
21849;DHT22;11089;49.852;19.700;2023-02-05T03:27:01;-4.60;1.00
21849;DHT22;11089;49.852;19.700;2023-02-05T03:30:04;-4.80;1.00
21849;DHT22;11089;49.852;19.700;2023-02-05T03:39:51;-4.70;1.00
21849;DHT22;11089;49.852;19.700;2023-02-05T03:46:39;-4.70;99.90
21849;DHT22;11089;49.852;19.700;2023-02-05T03:53:32;-4.90;25.00
21849;DHT22;11089;49.852;19.700;2023-02-05T03:59:55;-4.90;99.90
21849;DHT22;11089;49.852;19.700;2023-02-05T04:02:57;-5.00;99.90
21849;DHT22;11089;49.852;19.700;2023-02-05T04:05:58;-4.90;1.00
21849;DHT22;11089;49.852;19.700;2023-02-05T04:08:59;-5.00;99.90
21849;DHT22;11089;49.852;19.700;2023-02-05T04:12:00;-5.00;1.00
21849;DHT22;11089;49.852;19.700;2023-02-05T04:15:01;-5.00;1.00
21849;DHT22;11089;49.852;19.700;2023-02-05T04:18:02;-5.10;1.00
21849;DHT22;11089;49.852;19.700;2023-02-05T04:21:04;-5.20;1.00
21849;DHT22;11089;49.852;19.700;2023-02-05T04:24:05;-5.10;1.00
21849;DHT22;11089;49.852;19.700;2023-02-05T04:27:06;-5.00;1.00
21849;DHT22;11089;49.852;19.700;2023-02-05T04:30:07;-5.10;1.00
21849;DHT22;11089;49.852;19.700;2023-02-05T04:33:08;-5.20;1.00
21849;DHT22;11089;49.852;19.700;2023-02-05T04:36:09;-5.30;1.00
21849;DHT22;11089;49.852;19.700;2023-02-05T04:39:10;-5.20;1.00
21849;DHT22;11089;49.852;19.700;2023-02-05T04:42:11;-5.10;1.00
21849;DHT22;11089;49.852;19.700;2023-02-05T04:45:12;-5.20;99.90
21849;DHT22;11089;49.852;19.700;2023-02-05T04:48:13;-5.00;1.00
21849;DHT22;11089;49.852;19.700;2023-02-05T04:51:14;-5.10;1.00
21849;DHT22;11089;49.852;19.700;2023-02-05T04:54:15;-5.30;99.90
21849;DHT22;11089;49.852;19.700;2023-02-05T04:57:16;-5.20;1.00
21849;DHT22;11089;49.852;19.700;2023-02-05T05:00:17;-5.30;1.00
21849;DHT22;11089;49.852;19.700;2023-02-05T05:03:18;-5.40;1.00
21849;DHT22;11089;49.852;19.700;2023-02-05T05:06:19;-5.30;1.00
21849;DHT22;11089;49.852;19.700;2023-02-05T05:09:20;-5.30;99.90
21849;DHT22;11089;49.852;19.700;2023-02-05T05:12:23;-5.30;1.00
21849;DHT22;11089;49.852;19.700;2023-02-05T05:15:24;-5.40;1.00
21849;DHT22;11089;49.852;19.700;2023-02-05T05:18:25;-5.50;1.00
21849;DHT22;11089;49.852;19.700;2023-02-05T05:21:26;-5.40;99.90
21849;DHT22;11089;49.852;19.700;2023-02-05T05:24:27;-5.60;99.90
21849;DHT22;11089;49.852;19.700;2023-02-05T05:27:28;-5.60;1.00
21849;DHT22;11089;49.852;19.700;2023-02-05T05:30:29;-5.30;99.90
21849;DHT22;11089;49.852;19.700;2023-02-05T05:33:30;-5.30;1.00
21849;DHT22;11089;49.852;19.700;2023-02-05T05:36:31;-5.30;99.90
21849;DHT22;11089;49.852;19.700;2023-02-05T05:39:32;-5.30;1.00
21849;DHT22;11089;49.852;19.700;2023-02-05T05:42:46;-5.30;99.90
21849;DHT22;11089;49.852;19.700;2023-02-05T05:46:03;-5.30;99.90
21849;DHT22;11089;49.852;19.700;2023-02-05T05:49:04;-5.20;1.00
21849;DHT22;11089;49.852;19.700;2023-02-05T05:52:05;-5.20;99.90
21849;DHT22;11089;49.852;19.700;2023-02-05T05:55:06;-5.30;1.00
21849;DHT22;11089;49.852;19.700;2023-02-05T05:58:07;-5.30;1.00
21849;DHT22;11089;49.852;19.700;2023-02-05T06:01:09;-5.40;1.00
21849;DHT22;11089;49.852;19.700;2023-02-05T06:04:10;-5.30;1.00
21849;DHT22;11089;49.852;19.700;2023-02-05T06:07:11;-5.30;99.90
21849;DHT22;11089;49.852;19.700;2023-02-05T06:10:12;-5.30;1.00
21849;DHT22;11089;49.852;19.700;2023-02-05T06:13:13;-5.40;99.90
21849;DHT22;11089;49.852;19.700;2023-02-05T06:16:14;-5.40;1.00
21849;DHT22;11089;49.852;19.700;2023-02-05T06:19:15;-5.40;99.90
21849;DHT22;11089;49.852;19.700;2023-02-05T06:22:16;-5.40;99.90
21849;DHT22;11089;49.852;19.700;2023-02-05T06:25:17;-5.50;99.90
21849;DHT22;11089;49.852;19.700;2023-02-05T06:28:18;-5.50;99.90
21849;DHT22;11089;49.852;19.700;2023-02-05T06:31:19;-5.40;19.90
21849;DHT22;11089;49.852;19.700;2023-02-05T06:34:20;-5.40;1.00
21849;DHT22;11089;49.852;19.700;2023-02-05T06:37:21;-5.30;1.00
21849;DHT22;11089;49.852;19.700;2023-02-05T06:40:25;-5.20;99.90
21849;DHT22;11089;49.852;19.700;2023-02-05T06:43:27;-5.10;99.90
21849;DHT22;11089;49.852;19.700;2023-02-05T06:46:28;-4.90;99.90
21849;DHT22;11089;49.852;19.700;2023-02-05T06:49:29;-5.00;1.00
21849;DHT22;11089;49.852;19.700;2023-02-05T06:52:30;-4.90;99.90
21849;DHT22;11089;49.852;19.700;2023-02-05T06:55:32;-4.90;99.90
21849;DHT22;11089;49.852;19.700;2023-02-05T06:58:32;-4.70;1.00
21849;DHT22;11089;49.852;19.700;2023-02-05T07:01:33;-4.80;1.00
21849;DHT22;11089;49.852;19.700;2023-02-05T07:04:34;-4.70;1.00
21849;DHT22;11089;49.852;19.700;2023-02-05T07:07:35;-4.60;1.00
21849;DHT22;11089;49.852;19.700;2023-02-05T07:10:36;-4.60;99.90
21849;DHT22;11089;49.852;19.700;2023-02-05T07:13:37;-4.60;1.00
21849;DHT22;11089;49.852;19.700;2023-02-05T07:16:38;-4.70;1.00
21849;DHT22;11089;49.852;19.700;2023-02-05T07:19:39;-4.60;1.00
21849;DHT22;11089;49.852;19.700;2023-02-05T07:22:40;-4.70;1.00
21849;DHT22;11089;49.852;19.700;2023-02-05T07:25:41;-4.60;99.90
21849;DHT22;11089;49.852;19.700;2023-02-05T07:28:43;-4.60;1.00
21849;DHT22;11089;49.852;19.700;2023-02-05T07:31:44;-4.60;99.90
21849;DHT22;11089;49.852;19.700;2023-02-05T07:34:45;-4.60;1.00
21849;DHT22;11089;49.852;19.700;2023-02-05T07:37:46;-4.60;1.00
21849;DHT22;11089;49.852;19.700;2023-02-05T07:40:47;-4.60;99.90
21849;DHT22;11089;49.852;19.700;2023-02-05T07:43:51;-4.60;99.90
21849;DHT22;11089;49.852;19.700;2023-02-05T07:46:53;-4.40;1.00
21849;DHT22;11089;49.852;19.700;2023-02-05T07:49:53;-4.30;67.50
21849;DHT22;11089;49.852;19.700;2023-02-05T07:52:54;-4.20;1.00
21849;DHT22;11089;49.852;19.700;2023-02-05T07:55:55;-4.30;99.90
21849;DHT22;11089;49.852;19.700;2023-02-05T07:58:56;-4.30;1.00
21849;DHT22;11089;49.852;19.700;2023-02-05T08:01:57;-4.20;1.00
21849;DHT22;11089;49.852;19.700;2023-02-05T08:04:58;-4.10;1.00
21849;DHT22;11089;49.852;19.700;2023-02-05T08:07:59;-3.90;42.80
21849;DHT22;11089;49.852;19.700;2023-02-05T08:11:03;-3.90;1.00
21849;DHT22;11089;49.852;19.700;2023-02-05T08:14:04;-3.70;1.00
21849;DHT22;11089;49.852;19.700;2023-02-05T08:17:05;-3.70;99.90
21849;DHT22;11089;49.852;19.700;2023-02-05T08:20:06;-3.60;99.90
21849;DHT22;11089;49.852;19.700;2023-02-05T08:23:07;-3.70;99.90
21849;DHT22;11089;49.852;19.700;2023-02-05T08:26:08;-3.60;1.00
21849;DHT22;11089;49.852;19.700;2023-02-05T08:29:10;-3.40;99.90
21849;DHT22;11089;49.852;19.700;2023-02-05T08:32:11;-3.30;1.00
21849;DHT22;11089;49.852;19.700;2023-02-05T08:35:12;-3.30;1.00
21849;DHT22;11089;49.852;19.700;2023-02-05T08:38:12;-3.40;99.90
21849;DHT22;11089;49.852;19.700;2023-02-05T08:41:13;-3.30;1.00
21849;DHT22;11089;49.852;19.700;2023-02-05T08:44:15;-3.30;1.00
21849;DHT22;11089;49.852;19.700;2023-02-05T08:47:20;-3.30;99.90
21849;DHT22;11089;49.852;19.700;2023-02-05T08:50:21;-3.10;1.00
21849;DHT22;11089;49.852;19.700;2023-02-05T08:53:22;-3.00;1.00
21849;DHT22;11089;49.852;19.700;2023-02-05T08:56:23;-2.90;1.00
21849;DHT22;11089;49.852;19.700;2023-02-05T08:59:24;-2.80;99.90
21849;DHT22;11089;49.852;19.700;2023-02-05T09:02:25;-2.90;99.90
21849;DHT22;11089;49.852;19.700;2023-02-05T09:05:26;-2.90;99.90
21849;DHT22;11089;49.852;19.700;2023-02-05T09:08:27;-2.80;1.00
21849;DHT22;11089;49.852;19.700;2023-02-05T09:11:28;-2.60;99.90
21849;DHT22;11089;49.852;19.700;2023-02-05T09:14:30;-2.60;1.00
21849;DHT22;11089;49.852;19.700;2023-02-05T09:17:40;-2.50;99.90
21849;DHT22;11089;49.852;19.700;2023-02-05T09:20:42;-2.40;1.00
21849;DHT22;11089;49.852;19.700;2023-02-05T09:23:43;-2.40;1.00
21849;DHT22;11089;49.852;19.700;2023-02-05T09:26:44;-2.40;1.00
21849;DHT22;11089;49.852;19.700;2023-02-05T09:29:45;-2.50;1.00
21849;DHT22;11089;49.852;19.700;2023-02-05T09:32:46;-2.40;17.40
21849;DHT22;11089;49.852;19.700;2023-02-05T09:35:47;-2.40;1.00
21849;DHT22;11089;49.852;19.700;2023-02-05T09:38:49;-2.40;1.00
21849;DHT22;11089;49.852;19.700;2023-02-05T09:48:49;-2.50;1.00
21849;DHT22;11089;49.852;19.700;2023-02-05T09:52:02;-2.40;98.90
21849;DHT22;11089;49.852;19.700;2023-02-05T09:55:21;-2.40;99.90
21849;DHT22;11089;49.852;19.700;2023-02-05T09:58:26;-2.60;99.90
21849;DHT22;11089;49.852;19.700;2023-02-05T10:01:42;-2.60;99.90
21849;DHT22;11089;49.852;19.700;2023-02-05T10:04:43;-2.60;99.90
21849;DHT22;11089;49.852;19.700;2023-02-05T10:07:57;-2.50;1.00
21849;DHT22;11089;49.852;19.700;2023-02-05T10:11:07;-2.50;99.90
21849;DHT22;11089;49.852;19.700;2023-02-05T10:17:32;-2.20;1.80
21849;DHT22;11089;49.852;19.700;2023-02-05T10:27:22;-2.50;1.00
21849;DHT22;11089;49.852;19.700;2023-02-05T10:33:50;-2.70;1.00
21849;DHT22;11089;49.852;19.700;2023-02-05T10:36:55;-2.60;6.30
21849;DHT22;11089;49.852;19.700;2023-02-05T10:39:56;-2.70;1.00
21849;DHT22;11089;49.852;19.700;2023-02-05T10:43:09;-2.40;99.90
21849;DHT22;11089;49.852;19.700;2023-02-05T10:46:15;-2.50;99.90
21849;DHT22;11089;49.852;19.700;2023-02-05T10:52:57;-2.40;1.00
21849;DHT22;11089;49.852;19.700;2023-02-05T10:55:59;-2.20;1.00
21849;DHT22;11089;49.852;19.700;2023-02-05T10:59:01;-2.10;1.00
21849;DHT22;11089;49.852;19.700;2023-02-05T11:02:07;-2.00;99.90
21849;DHT22;11089;49.852;19.700;2023-02-05T11:08:41;-1.40;99.90
21849;DHT22;11089;49.852;19.700;2023-02-05T11:11:53;-1.00;1.00
21849;DHT22;11089;49.852;19.700;2023-02-05T11:15:00;-0.80;99.90
21849;DHT22;11089;49.852;19.700;2023-02-05T11:18:06;-0.50;99.90
21849;DHT22;11089;49.852;19.700;2023-02-05T11:21:08;-0.30;99.90
21849;DHT22;11089;49.852;19.700;2023-02-05T11:24:21;0.10;1.00
21849;DHT22;11089;49.852;19.700;2023-02-05T11:27:27;0.00;1.00
21849;DHT22;11089;49.852;19.700;2023-02-05T11:30:33;-0.40;99.90
21849;DHT22;11089;49.852;19.700;2023-02-05T11:33:35;-0.60;1.00
21849;DHT22;11089;49.852;19.700;2023-02-05T11:40:35;-0.80;1.00
21849;DHT22;11089;49.852;19.700;2023-02-05T11:46:45;-1.60;1.00
21849;DHT22;11089;49.852;19.700;2023-02-05T11:49:49;-1.40;99.90
21849;DHT22;11089;49.852;19.700;2023-02-05T11:52:51;-1.20;1.00
21849;DHT22;11089;49.852;19.700;2023-02-05T11:55:55;-1.10;99.90
21849;DHT22;11089;49.852;19.700;2023-02-05T11:59:15;-1.30;99.90
21849;DHT22;11089;49.852;19.700;2023-02-05T12:05:33;-1.30;99.90
21849;DHT22;11089;49.852;19.700;2023-02-05T12:08:51;-1.40;99.90
21849;DHT22;11089;49.852;19.700;2023-02-05T12:15:23;-1.50;1.00
21849;DHT22;11089;49.852;19.700;2023-02-05T12:21:56;-1.70;1.00
21849;DHT22;11089;49.852;19.700;2023-02-05T12:28:55;-1.60;1.00
21849;DHT22;11089;49.852;19.700;2023-02-05T12:35:36;-1.70;99.90
21849;DHT22;11089;49.852;19.700;2023-02-05T12:49:04;-1.50;1.00
21849;DHT22;11089;49.852;19.700;2023-02-05T13:05:35;-2.20;1.00
21849;DHT22;11089;49.852;19.700;2023-02-05T13:09:28;-2.20;1.00
21849;DHT22;11089;49.852;19.700;2023-02-05T13:12:15;-2.30;1.00
21849;DHT22;11089;49.852;19.700;2023-02-05T13:15:24;-2.30;99.90
21849;DHT22;11089;49.852;19.700;2023-02-05T13:18:34;-2.30;99.90
21849;DHT22;11089;49.852;19.700;2023-02-05T13:21:37;-2.40;99.90
21849;DHT22;11089;49.852;19.700;2023-02-05T13:25:12;-2.30;1.00
21849;DHT22;11089;49.852;19.700;2023-02-05T13:28:35;-2.20;99.90
21849;DHT22;11089;49.852;19.700;2023-02-05T13:31:42;-1.90;99.90
21849;DHT22;11089;49.852;19.700;2023-02-05T13:34:48;-1.60;1.00
21849;DHT22;11089;49.852;19.700;2023-02-05T13:47:59;-1.10;1.00
21849;DHT22;11089;49.852;19.700;2023-02-05T14:01:03;-1.50;99.90
21849;DHT22;11089;49.852;19.700;2023-02-05T14:04:24;-1.60;99.90
21849;DHT22;11089;49.852;19.700;2023-02-05T14:07:34;-1.40;99.90
21849;DHT22;11089;49.852;19.700;2023-02-05T14:10:40;-1.40;99.90
21849;DHT22;11089;49.852;19.700;2023-02-05T14:20:32;-1.40;99.90
21849;DHT22;11089;49.852;19.700;2023-02-05T14:26:56;-1.60;99.90
21849;DHT22;11089;49.852;19.700;2023-02-05T14:33:34;-1.50;99.90
21849;DHT22;11089;49.852;19.700;2023-02-05T14:36:38;-1.60;99.90
21849;DHT22;11089;49.852;19.700;2023-02-05T14:39:41;-1.80;99.90
21849;DHT22;11089;49.852;19.700;2023-02-05T14:42:42;-1.90;99.90
21849;DHT22;11089;49.852;19.700;2023-02-05T14:45:50;-1.90;99.90
21849;DHT22;11089;49.852;19.700;2023-02-05T14:48:51;-1.90;99.90
21849;DHT22;11089;49.852;19.700;2023-02-05T14:52:00;-2.00;99.90
21849;DHT22;11089;49.852;19.700;2023-02-05T14:58:38;-2.30;99.90
21849;DHT22;11089;49.852;19.700;2023-02-05T15:01:45;-2.50;99.90
21849;DHT22;11089;49.852;19.700;2023-02-05T15:04:50;-2.20;1.00
21849;DHT22;11089;49.852;19.700;2023-02-05T15:14:57;-2.30;1.00
21849;DHT22;11089;49.852;19.700;2023-02-05T15:24:22;-2.60;1.00
21849;DHT22;11089;49.852;19.700;2023-02-05T15:27:41;-2.70;1.00
21849;DHT22;11089;49.852;19.700;2023-02-05T15:30:50;-2.90;1.00
21849;DHT22;11089;49.852;19.700;2023-02-05T15:37:36;-3.00;99.90
21849;DHT22;11089;49.852;19.700;2023-02-05T15:40:38;-2.90;1.00
21849;DHT22;11089;49.852;19.700;2023-02-05T15:43:40;-3.10;1.00
21849;DHT22;11089;49.852;19.700;2023-02-05T15:46:41;-3.20;1.00
21849;DHT22;11089;49.852;19.700;2023-02-05T15:49:46;-3.10;1.00
21849;DHT22;11089;49.852;19.700;2023-02-05T15:52:50;-3.20;1.00
21849;DHT22;11089;49.852;19.700;2023-02-05T15:55:51;-3.40;92.00
21849;DHT22;11089;49.852;19.700;2023-02-05T16:05:20;-3.20;1.00
21849;DHT22;11089;49.852;19.700;2023-02-05T16:08:22;-3.40;1.00
21849;DHT22;11089;49.852;19.700;2023-02-05T16:11:31;-3.50;1.00
21849;DHT22;11089;49.852;19.700;2023-02-05T16:14:32;-3.40;99.90
21849;DHT22;11089;49.852;19.700;2023-02-05T16:17:45;-3.50;1.00
21849;DHT22;11089;49.852;19.700;2023-02-05T16:20:51;-3.50;99.90
21849;DHT22;11089;49.852;19.700;2023-02-05T16:23:58;-3.30;1.00
21849;DHT22;11089;49.852;19.700;2023-02-05T16:27:14;-3.40;1.00
21849;DHT22;11089;49.852;19.700;2023-02-05T16:30:30;-3.40;1.00
21849;DHT22;11089;49.852;19.700;2023-02-05T16:33:36;-3.40;1.00
21849;DHT22;11089;49.852;19.700;2023-02-05T16:36:40;-3.50;1.00
21849;DHT22;11089;49.852;19.700;2023-02-05T16:39:46;-3.60;1.00
21849;DHT22;11089;49.852;19.700;2023-02-05T16:42:49;-3.50;65.30
21849;DHT22;11089;49.852;19.700;2023-02-05T16:49:28;-3.70;99.90
21849;DHT22;11089;49.852;19.700;2023-02-05T16:52:34;-3.70;1.00
21849;DHT22;11089;49.852;19.700;2023-02-05T16:55:40;-3.70;99.90
21849;DHT22;11089;49.852;19.700;2023-02-05T16:58:47;-3.90;17.30
21849;DHT22;11089;49.852;19.700;2023-02-05T17:01:50;-4.00;1.00
21849;DHT22;11089;49.852;19.700;2023-02-05T17:04:52;-4.00;1.00
21849;DHT22;11089;49.852;19.700;2023-02-05T17:08:07;-4.10;99.90
21849;DHT22;11089;49.852;19.700;2023-02-05T17:11:33;-4.10;1.00
21849;DHT22;11089;49.852;19.700;2023-02-05T17:14:34;-4.10;1.00
21849;DHT22;11089;49.852;19.700;2023-02-05T17:17:44;-4.10;1.00
21849;DHT22;11089;49.852;19.700;2023-02-05T17:20:48;-4.10;99.90
21849;DHT22;11089;49.852;19.700;2023-02-05T17:23:52;-4.10;1.00
21849;DHT22;11089;49.852;19.700;2023-02-05T17:26:53;-4.10;99.90
21849;DHT22;11089;49.852;19.700;2023-02-05T17:29:56;-4.10;99.90
21849;DHT22;11089;49.852;19.700;2023-02-05T17:32:58;-4.20;1.00
21849;DHT22;11089;49.852;19.700;2023-02-05T17:35:59;-4.10;1.00
21849;DHT22;11089;49.852;19.700;2023-02-05T17:39:00;-4.10;1.00
21849;DHT22;11089;49.852;19.700;2023-02-05T17:42:01;-4.20;99.90
21849;DHT22;11089;49.852;19.700;2023-02-05T17:45:18;-4.30;99.90
21849;DHT22;11089;49.852;19.700;2023-02-05T17:48:19;-4.40;1.00
21849;DHT22;11089;49.852;19.700;2023-02-05T17:51:21;-4.30;1.00
21849;DHT22;11089;49.852;19.700;2023-02-05T17:54:24;-4.30;99.90
21849;DHT22;11089;49.852;19.700;2023-02-05T17:57:25;-4.30;99.90
21849;DHT22;11089;49.852;19.700;2023-02-05T18:00:28;-4.30;1.00
21849;DHT22;11089;49.852;19.700;2023-02-05T18:03:31;-4.30;1.00
21849;DHT22;11089;49.852;19.700;2023-02-05T18:06:33;-4.30;1.00
21849;DHT22;11089;49.852;19.700;2023-02-05T18:09:34;-4.20;99.90
21849;DHT22;11089;49.852;19.700;2023-02-05T18:12:35;-4.30;99.90
21849;DHT22;11089;49.852;19.700;2023-02-05T18:15:36;-4.30;99.90
21849;DHT22;11089;49.852;19.700;2023-02-05T18:18:37;-4.40;99.90
21849;DHT22;11089;49.852;19.700;2023-02-05T18:21:38;-4.40;99.90
21849;DHT22;11089;49.852;19.700;2023-02-05T18:24:39;-4.30;1.00
21849;DHT22;11089;49.852;19.700;2023-02-05T18:27:40;-4.20;1.00
21849;DHT22;11089;49.852;19.700;2023-02-05T18:30:41;-4.20;1.00
21849;DHT22;11089;49.852;19.700;2023-02-05T18:33:42;-4.30;1.00
21849;DHT22;11089;49.852;19.700;2023-02-05T18:36:43;-4.30;10.90
21849;DHT22;11089;49.852;19.700;2023-02-05T18:39:44;-4.40;99.90
21849;DHT22;11089;49.852;19.700;2023-02-05T18:42:46;-4.50;1.00
21849;DHT22;11089;49.852;19.700;2023-02-05T18:45:47;-4.40;1.00
21849;DHT22;11089;49.852;19.700;2023-02-05T18:48:48;-4.40;99.90
21849;DHT22;11089;49.852;19.700;2023-02-05T18:51:49;-4.30;99.90
21849;DHT22;11089;49.852;19.700;2023-02-05T18:54:50;-4.40;99.90
21849;DHT22;11089;49.852;19.700;2023-02-05T18:57:51;-4.40;1.00
21849;DHT22;11089;49.852;19.700;2023-02-05T19:00:52;-4.40;1.00
21849;DHT22;11089;49.852;19.700;2023-02-05T19:03:53;-4.40;1.00
21849;DHT22;11089;49.852;19.700;2023-02-05T19:06:55;-4.30;1.00
21849;DHT22;11089;49.852;19.700;2023-02-05T19:09:56;-4.30;99.90
21849;DHT22;11089;49.852;19.700;2023-02-05T19:12:58;-4.40;1.00
21849;DHT22;11089;49.852;19.700;2023-02-05T19:16:08;-4.50;1.00
21849;DHT22;11089;49.852;19.700;2023-02-05T19:19:15;-4.50;1.00
21849;DHT22;11089;49.852;19.700;2023-02-05T19:22:16;-4.50;1.00
21849;DHT22;11089;49.852;19.700;2023-02-05T19:25:17;-4.40;1.00
21849;DHT22;11089;49.852;19.700;2023-02-05T19:28:18;-4.50;1.00
21849;DHT22;11089;49.852;19.700;2023-02-05T19:31:19;-4.40;1.00
21849;DHT22;11089;49.852;19.700;2023-02-05T19:34:20;-4.50;15.20
21849;DHT22;11089;49.852;19.700;2023-02-05T19:37:21;-4.40;99.90
21849;DHT22;11089;49.852;19.700;2023-02-05T19:40:22;-4.50;99.90
21849;DHT22;11089;49.852;19.700;2023-02-05T19:43:23;-4.50;1.00
21849;DHT22;11089;49.852;19.700;2023-02-05T19:46:29;-4.40;1.00
21849;DHT22;11089;49.852;19.700;2023-02-05T19:49:31;-4.40;99.90
21849;DHT22;11089;49.852;19.700;2023-02-05T19:52:32;-4.50;1.00
21849;DHT22;11089;49.852;19.700;2023-02-05T19:55:33;-4.40;99.90
21849;DHT22;11089;49.852;19.700;2023-02-05T19:58:37;-4.40;99.90
21849;DHT22;11089;49.852;19.700;2023-02-05T20:01:39;-4.40;99.90
21849;DHT22;11089;49.852;19.700;2023-02-05T20:04:43;-4.40;93.60
21849;DHT22;11089;49.852;19.700;2023-02-05T20:07:50;-4.50;99.90
21849;DHT22;11089;49.852;19.700;2023-02-05T20:11:01;-4.50;1.00
21849;DHT22;11089;49.852;19.700;2023-02-05T20:14:02;-4.40;1.00
21849;DHT22;11089;49.852;19.700;2023-02-05T20:17:03;-4.50;1.00
21849;DHT22;11089;49.852;19.700;2023-02-05T20:20:04;-4.50;99.90
21849;DHT22;11089;49.852;19.700;2023-02-05T20:23:05;-4.50;1.00
21849;DHT22;11089;49.852;19.700;2023-02-05T20:26:07;-4.50;1.00
21849;DHT22;11089;49.852;19.700;2023-02-05T20:29:09;-4.50;1.00
21849;DHT22;11089;49.852;19.700;2023-02-05T20:32:23;-4.50;1.00
21849;DHT22;11089;49.852;19.700;2023-02-05T20:35:24;-4.50;1.00
21849;DHT22;11089;49.852;19.700;2023-02-05T20:38:25;-4.50;1.00
21849;DHT22;11089;49.852;19.700;2023-02-05T20:41:26;-4.50;33.80
21849;DHT22;11089;49.852;19.700;2023-02-05T20:44:29;-4.60;1.00
21849;DHT22;11089;49.852;19.700;2023-02-05T20:47:31;-4.50;1.00
21849;DHT22;11089;49.852;19.700;2023-02-05T20:50:33;-4.60;1.00
21849;DHT22;11089;49.852;19.700;2023-02-05T20:53:35;-4.50;1.00
21849;DHT22;11089;49.852;19.700;2023-02-05T20:56:36;-4.60;1.00
21849;DHT22;11089;49.852;19.700;2023-02-05T20:59:37;-4.60;1.00
21849;DHT22;11089;49.852;19.700;2023-02-05T21:02:38;-4.60;27.90
21849;DHT22;11089;49.852;19.700;2023-02-05T21:05:39;-4.70;1.00
21849;DHT22;11089;49.852;19.700;2023-02-05T21:08:41;-4.70;99.90
21849;DHT22;11089;49.852;19.700;2023-02-05T21:11:43;-4.60;1.00
21849;DHT22;11089;49.852;19.700;2023-02-05T21:14:44;-4.60;1.00
21849;DHT22;11089;49.852;19.700;2023-02-05T21:17:44;-4.60;99.90
21849;DHT22;11089;49.852;19.700;2023-02-05T21:20:45;-4.70;1.00
21849;DHT22;11089;49.852;19.700;2023-02-05T21:23:46;-4.80;1.00
21849;DHT22;11089;49.852;19.700;2023-02-05T21:26:48;-4.70;3.60
21849;DHT22;11089;49.852;19.700;2023-02-05T21:29:49;-4.70;99.90
21849;DHT22;11089;49.852;19.700;2023-02-05T21:32:51;-4.70;99.90
21849;DHT22;11089;49.852;19.700;2023-02-05T21:35:52;-4.60;99.90
21849;DHT22;11089;49.852;19.700;2023-02-05T21:38:53;-4.60;1.00
21849;DHT22;11089;49.852;19.700;2023-02-05T21:41:54;-4.50;1.00
21849;DHT22;11089;49.852;19.700;2023-02-05T21:44:55;-4.60;1.00
21849;DHT22;11089;49.852;19.700;2023-02-05T21:47:56;-4.60;1.00
21849;DHT22;11089;49.852;19.700;2023-02-05T21:50:57;-4.50;15.90
21849;DHT22;11089;49.852;19.700;2023-02-05T21:54:01;-4.60;3.00
21849;DHT22;11089;49.852;19.700;2023-02-05T21:57:03;-4.50;1.00
21849;DHT22;11089;49.852;19.700;2023-02-05T22:00:04;-4.50;99.90
21849;DHT22;11089;49.852;19.700;2023-02-05T22:03:05;-4.50;15.50
21849;DHT22;11089;49.852;19.700;2023-02-05T22:06:06;-4.50;74.10